Terminal Aerodrome Forecast
Issued by NWS

Home | Current Version | Previous Version | Text Only | Print | Product List | Glossary On
Versions: 1 2 3 4 5 6 7 8 9 10 11 12 13 14 15 16
083
FTUS46 KSGX 301720
TAFSNA
TAF
KSNA 301720Z 3018/3118 VRB05KT P6SM BKN022
     FM301900 22009KT P6SM SCT025 BKN035
     FM310200 VRB04KT P6SM SCT018
     FM310500 VRB03KT P6SM OVC015
      TEMPO 3109/3113 3SM BR OVC010=

USA.gov is the U.S. government's official web portal to all federal, state and local government web resources and services.